createdAt,value
2023-09-29T00:00:19.045Z,2.40
2023-09-29T00:02:48.710Z,2.00
2023-09-29T00:05:18.931Z,2.80
2023-09-29T00:07:46.056Z,2.55
2023-09-29T00:10:21.950Z,2.33
2023-09-29T00:12:50.018Z,2.33
2023-09-29T00:15:20.572Z,2.30
2023-09-29T00:17:47.604Z,2.30
2023-09-29T00:20:25.278Z,2.08
2023-09-29T00:22:56.149Z,2.10
2023-09-29T00:25:23.120Z,2.13
2023-09-29T00:27:49.717Z,2.15
2023-09-29T00:30:16.336Z,2.07
2023-09-29T00:32:51.408Z,2.42
2023-09-29T00:35:26.332Z,2.10
2023-09-29T00:37:57.118Z,2.17
2023-09-29T00:40:24.893Z,1.80
2023-09-29T00:42:51.532Z,1.90
2023-09-29T00:45:21.230Z,2.15
2023-09-29T00:47:52.388Z,1.77
2023-09-29T00:50:23.088Z,2.33
2023-09-29T00:52:53.779Z,2.00
2023-09-29T00:55:25.719Z,2.25
2023-09-29T00:57:52.701Z,1.83
2023-09-29T01:00:19.851Z,2.83
2023-09-29T01:02:47.046Z,2.43
2023-09-29T01:05:13.911Z,1.83
2023-09-29T01:07:42.447Z,2.47
2023-09-29T01:10:12.025Z,2.33
2023-09-29T01:12:38.546Z,2.40
2023-09-29T01:15:06.332Z,2.37
2023-09-29T01:17:33.060Z,2.25
2023-09-29T01:19:59.699Z,2.30
2023-09-29T01:22:27.325Z,2.08
2023-09-29T01:24:54.310Z,2.22
2023-09-29T01:27:20.838Z,1.90
2023-09-29T01:29:49.203Z,2.13
2023-09-29T01:32:16.200Z,2.88
2023-09-29T01:34:42.928Z,2.50
2023-09-29T01:37:09.603Z,2.17
2023-09-29T01:39:36.183Z,2.33
2023-09-29T01:42:02.724Z,2.50
2023-09-29T01:44:29.352Z,2.53
2023-09-29T01:46:57.402Z,2.38
2023-09-29T01:49:24.101Z,2.38
2023-09-29T01:51:51.831Z,3.10
2023-09-29T01:54:18.843Z,2.78
2023-09-29T01:56:46.330Z,1.98
2023-09-29T01:59:14.140Z,2.65
2023-09-29T02:01:40.749Z,2.65
2023-09-29T02:04:07.425Z,2.77
2023-09-29T02:06:34.242Z,2.40
2023-09-29T02:09:01.039Z,2.17
2023-09-29T02:11:28.961Z,2.20
2023-09-29T02:13:55.512Z,3.55
2023-09-29T02:16:22.019Z,1.97
2023-09-29T02:18:48.666Z,2.50
2023-09-29T02:21:24.764Z,2.45
2023-09-29T02:23:51.406Z,2.47
2023-09-29T02:26:18.582Z,2.42
2023-09-29T02:28:45.101Z,2.17
2023-09-29T02:31:14.827Z,2.42
2023-09-29T02:33:42.285Z,2.58
2023-09-29T02:36:09.304Z,2.67
2023-09-29T02:38:37.886Z,2.33
2023-09-29T02:41:05.239Z,2.93
2023-09-29T02:43:31.916Z,2.22
2023-09-29T02:45:58.604Z,2.30
2023-09-29T02:48:25.678Z,2.42
2023-09-29T02:50:52.477Z,2.10
2023-09-29T02:53:19.025Z,2.20
2023-09-29T02:55:46.528Z,2.20
2023-09-29T02:58:14.215Z,2.90
2023-09-29T03:00:41.251Z,2.85
2023-09-29T03:03:08.049Z,2.30
2023-09-29T03:05:34.746Z,2.30
2023-09-29T03:08:01.313Z,2.28
2023-09-29T03:10:30.110Z,2.97
2023-09-29T03:12:59.671Z,2.70
2023-09-29T03:15:27.021Z,2.60
2023-09-29T03:17:58.894Z,2.10
2023-09-29T03:20:26.882Z,2.60
2023-09-29T03:22:53.507Z,2.25
2023-09-29T03:25:22.220Z,2.60
2023-09-29T03:27:49.592Z,2.45
2023-09-29T03:30:17.235Z,2.40
2023-09-29T03:32:44.647Z,2.40
2023-09-29T03:35:13.230Z,2.40
2023-09-29T03:37:40.917Z,2.47
2023-09-29T03:40:11.124Z,2.13
2023-09-29T03:42:39.168Z,2.50
2023-09-29T03:45:07.071Z,2.20
2023-09-29T03:47:34.957Z,2.30
2023-09-29T03:50:02.933Z,2.30
2023-09-29T03:52:33.369Z,2.20
2023-09-29T03:55:00.341Z,2.33
2023-09-29T03:57:26.968Z,2.22
2023-09-29T03:59:53.711Z,2.08
2023-09-29T04:02:21.686Z,2.50
2023-09-29T04:04:48.579Z,2.17
2023-09-29T04:07:16.867Z,2.30
2023-09-29T04:09:43.723Z,2.50
2023-09-29T04:12:10.523Z,2.30
2023-09-29T04:14:37.114Z,2.10
2023-09-29T04:17:05.863Z,2.20
2023-09-29T04:19:33.414Z,1.93
2023-09-29T04:22:01.097Z,2.10
2023-09-29T04:24:28.288Z,2.10
2023-09-29T04:26:54.933Z,2.10
2023-09-29T04:29:22.047Z,2.45
2023-09-29T04:31:48.680Z,1.50
2023-09-29T04:34:15.241Z,2.00
2023-09-29T04:36:43.139Z,2.30
2023-09-29T04:39:10.266Z,1.83
2023-09-29T04:41:38.450Z,2.03
2023-09-29T04:44:06.704Z,1.97
2023-09-29T04:46:35.293Z,2.05
2023-09-29T04:49:05.101Z,1.85
2023-09-29T04:51:33.848Z,1.85
2023-09-29T04:54:01.167Z,2.17
2023-09-29T04:56:27.782Z,2.30
2023-09-29T04:58:54.688Z,2.00
2023-09-29T05:01:22.113Z,1.70
2023-09-29T05:03:48.978Z,2.00
2023-09-29T05:06:15.810Z,1.60
2023-09-29T05:08:42.452Z,2.20
2023-09-29T05:11:09.147Z,2.00
2023-09-29T05:13:35.745Z,1.77
2023-09-29T05:16:02.622Z,2.03
2023-09-29T05:18:29.297Z,1.55
2023-09-29T05:20:55.949Z,1.90
2023-09-29T05:23:22.565Z,1.58
2023-09-29T05:25:49.217Z,2.03
2023-09-29T05:28:15.823Z,1.70
2023-09-29T05:30:54.747Z,1.90
2023-09-29T05:33:21.797Z,1.63
2023-09-29T05:35:48.419Z,1.63
2023-09-29T05:38:15.074Z,2.25
2023-09-29T05:40:41.619Z,1.63
2023-09-29T05:43:14.469Z,2.10
2023-09-29T05:45:41.566Z,1.80
2023-09-29T05:48:08.562Z,1.35
2023-09-29T05:50:35.502Z,1.95
2023-09-29T05:53:10.352Z,2.03
2023-09-29T05:55:38.483Z,1.88
2023-09-29T05:58:05.423Z,1.83
2023-09-29T06:00:32.123Z,1.92
2023-09-29T06:03:01.096Z,2.00
2023-09-29T06:05:30.493Z,2.08
2023-09-29T06:07:58.973Z,1.88
2023-09-29T06:10:26.430Z,1.90
2023-09-29T06:12:53.353Z,1.80
2023-09-29T06:15:20.383Z,1.90
2023-09-29T06:17:47.075Z,1.70
2023-09-29T06:20:13.810Z,1.60
2023-09-29T06:22:40.364Z,2.00
2023-09-29T06:25:07.061Z,1.80
2023-09-29T06:27:33.587Z,1.48
2023-09-29T06:30:00.147Z,1.85
2023-09-29T06:32:26.819Z,1.83
2023-09-29T06:34:53.392Z,1.77
2023-09-29T06:37:19.916Z,1.90
2023-09-29T06:39:46.525Z,1.88
2023-09-29T06:42:13.221Z,2.05
2023-09-29T06:44:39.849Z,1.90
2023-09-29T06:47:06.449Z,1.63
2023-09-29T06:49:32.980Z,1.80
2023-09-29T06:51:59.509Z,1.98
2023-09-29T06:54:26.201Z,1.98
2023-09-29T06:56:52.876Z,2.00
2023-09-29T06:59:19.467Z,1.70
2023-09-29T07:01:46.570Z,1.65
2023-09-29T07:04:13.437Z,1.60
2023-09-29T07:06:40.316Z,2.03
2023-09-29T07:09:08.464Z,1.45
2023-09-29T07:11:35.254Z,1.57
2023-09-29T07:14:01.932Z,2.58
2023-09-29T07:16:30.145Z,2.38
2023-09-29T07:18:57.090Z,2.22
2023-09-29T07:21:23.883Z,2.30
2023-09-29T07:23:50.795Z,1.80
2023-09-29T07:26:17.520Z,2.10
2023-09-29T07:28:44.610Z,2.40
2023-09-29T07:31:11.405Z,1.80
2023-09-29T07:33:38.039Z,1.95
2023-09-29T07:36:05.078Z,1.87
2023-09-29T07:38:31.694Z,2.08
2023-09-29T07:41:00.264Z,1.45
2023-09-29T07:43:26.780Z,1.65
2023-09-29T07:45:53.366Z,1.58
2023-09-29T07:48:19.940Z,1.77
2023-09-29T07:50:46.933Z,1.70
2023-09-29T07:53:13.700Z,1.70
2023-09-29T07:55:40.371Z,1.65
2023-09-29T07:58:07.616Z,1.55
2023-09-29T08:00:34.446Z,1.57
2023-09-29T08:03:01.500Z,1.45
2023-09-29T08:05:28.473Z,1.67
2023-09-29T08:07:55.055Z,1.40
2023-09-29T08:10:21.637Z,1.90
2023-09-29T08:12:48.281Z,1.93
2023-09-29T08:15:16.166Z,1.70
2023-09-29T08:17:43.267Z,1.80
2023-09-29T08:20:10.874Z,1.35
2023-09-29T08:22:40.362Z,1.50
2023-09-29T08:25:11.954Z,1.43
2023-09-29T08:27:39.396Z,1.20
2023-09-29T08:30:08.781Z,1.80
2023-09-29T08:32:38.884Z,1.50
2023-09-29T08:35:06.755Z,1.50
2023-09-29T08:37:33.799Z,1.53
2023-09-29T08:40:00.667Z,1.48
2023-09-29T08:42:38.309Z,1.42
2023-09-29T08:45:14.235Z,1.52
2023-09-29T08:47:42.190Z,1.70
2023-09-29T08:50:12.511Z,1.40
2023-09-29T08:52:42.306Z,1.83
2023-09-29T08:55:09.838Z,1.67
2023-09-29T08:57:36.626Z,1.38
2023-09-29T09:00:04.435Z,1.70
2023-09-29T09:02:31.507Z,1.50
2023-09-29T09:04:58.492Z,1.80
2023-09-29T09:07:25.149Z,1.70
2023-09-29T09:09:54.919Z,1.48
2023-09-29T09:12:35.222Z,1.52
2023-09-29T09:15:05.722Z,1.40
2023-09-29T09:17:35.609Z,1.65
2023-09-29T09:20:03.596Z,1.73
2023-09-29T09:22:46.792Z,1.50
2023-09-29T09:25:15.712Z,1.30
2023-09-29T09:27:44.862Z,1.93
2023-09-29T09:30:25.342Z,1.73
2023-09-29T09:32:52.713Z,1.65
2023-09-29T09:35:30.343Z,1.75
2023-09-29T09:37:58.188Z,1.80
2023-09-29T09:40:26.196Z,1.50
2023-09-29T09:42:59.648Z,1.52
2023-09-29T09:45:27.733Z,1.55
2023-09-29T09:48:00.815Z,1.30
2023-09-29T09:50:29.974Z,1.60
2023-09-29T09:52:57.537Z,1.10
2023-09-29T09:55:42.632Z,1.08
2023-09-29T09:58:15.197Z,1.77
2023-09-29T10:00:46.634Z,1.10
2023-09-29T10:03:17.738Z,1.50
2023-09-29T10:05:54.439Z,1.20
2023-09-29T10:08:32.478Z,1.20
2023-09-29T10:11:16.455Z,1.00
2023-09-29T10:13:46.020Z,0.90
2023-09-29T10:16:26.085Z,0.85
2023-09-29T10:18:59.634Z,0.90
2023-09-29T10:21:27.551Z,1.02
2023-09-29T10:23:54.151Z,1.23
2023-09-29T10:26:21.985Z,0.82
2023-09-29T10:28:48.995Z,1.08
2023-09-29T10:31:18.367Z,0.70
2023-09-29T10:33:57.338Z,1.00
2023-09-29T10:36:25.950Z,1.10
2023-09-29T10:38:55.128Z,1.00
2023-09-29T10:41:35.073Z,1.00
2023-09-29T10:44:05.068Z,1.00
2023-09-29T10:46:32.152Z,1.40
2023-09-29T10:48:59.969Z,1.00
2023-09-29T10:51:34.338Z,1.00
2023-09-29T10:54:08.936Z,1.10
2023-09-29T10:56:37.690Z,1.20
2023-09-29T10:59:09.987Z,1.13
2023-09-29T11:01:37.111Z,1.48
2023-09-29T11:04:09.428Z,1.40
2023-09-29T11:06:47.331Z,1.23
2023-09-29T11:09:21.250Z,0.90
2023-09-29T11:11:49.478Z,1.30
2023-09-29T11:14:16.535Z,1.42
2023-09-29T11:16:43.166Z,1.30
2023-09-29T11:19:16.014Z,1.20
2023-09-29T11:21:43.214Z,1.07
2023-09-29T11:24:12.025Z,1.30
2023-09-29T11:26:49.744Z,1.48
2023-09-29T11:29:29.436Z,1.63
2023-09-29T11:31:56.351Z,1.80
2023-09-29T11:34:24.289Z,1.60
2023-09-29T11:36:52.940Z,1.50
2023-09-29T11:39:43.931Z,1.35
2023-09-29T11:42:10.551Z,0.60
2023-09-29T11:44:37.203Z,0.60
2023-09-29T11:47:03.741Z,0.50
2023-09-29T11:49:30.318Z,1.02
2023-09-29T11:51:57.408Z,0.80
2023-09-29T11:54:24.301Z,0.60
2023-09-29T11:56:50.925Z,0.70
2023-09-29T11:59:17.465Z,0.57
2023-09-29T12:01:44.042Z,0.65
2023-09-29T12:04:10.745Z,0.88
2023-09-29T12:06:40.445Z,0.90
2023-09-29T12:09:07.011Z,0.88
2023-09-29T12:11:33.685Z,1.00
2023-09-29T12:14:00.204Z,1.10
2023-09-29T12:16:26.814Z,1.02
2023-09-29T12:18:53.424Z,1.00
2023-09-29T12:21:22.165Z,1.48
2023-09-29T12:23:48.802Z,0.80
2023-09-29T12:26:15.385Z,0.98
2023-09-29T12:28:41.940Z,0.90
2023-09-29T12:31:18.032Z,0.80
2023-09-29T12:33:46.634Z,0.70
2023-09-29T12:36:13.525Z,0.70
2023-09-29T12:38:40.097Z,0.50
2023-09-29T12:41:06.632Z,0.80
2023-09-29T12:43:33.123Z,0.40
2023-09-29T12:45:59.770Z,0.40
2023-09-29T12:48:26.437Z,0.30
2023-09-29T12:50:53.035Z,0.82
2023-09-29T12:53:19.606Z,0.40
2023-09-29T12:55:48.277Z,0.30
2023-09-29T12:58:14.815Z,0.43
2023-09-29T13:00:41.341Z,0.40
2023-09-29T13:03:07.998Z,0.73
2023-09-29T13:05:39.141Z,0.60
2023-09-29T13:08:06.710Z,0.40
2023-09-29T13:10:37.918Z,0.57
2023-09-29T13:13:06.355Z,0.30
2023-09-29T13:15:33.595Z,0.50
2023-09-29T13:18:00.698Z,0.50
2023-09-29T13:20:27.303Z,0.77
2023-09-29T13:22:53.892Z,0.50
2023-09-29T13:25:21.278Z,0.50
2023-09-29T13:27:47.934Z,0.50
2023-09-29T13:30:15.851Z,0.60
2023-09-29T13:32:42.516Z,0.63
2023-09-29T13:35:09.718Z,0.80
2023-09-29T13:37:37.980Z,1.10
2023-09-29T13:40:07.280Z,0.70
2023-09-29T13:42:36.017Z,0.73
2023-09-29T13:45:04.367Z,0.70
2023-09-29T13:47:30.984Z,1.30
2023-09-29T13:49:57.637Z,0.97
2023-09-29T13:52:24.878Z,0.93
2023-09-29T13:54:54.290Z,0.90
2023-09-29T13:57:24.829Z,1.67
2023-09-29T13:59:51.546Z,0.95
2023-09-29T14:02:18.208Z,0.87
2023-09-29T14:04:46.147Z,1.20
2023-09-29T14:07:13.505Z,0.95
2023-09-29T14:09:40.774Z,1.30
2023-09-29T14:12:09.834Z,1.20
2023-09-29T14:14:37.389Z,1.10
2023-09-29T14:17:06.235Z,1.30
2023-09-29T14:19:33.702Z,1.10
2023-09-29T14:22:00.523Z,1.50
2023-09-29T14:24:27.035Z,1.30
2023-09-29T14:26:54.164Z,1.23
2023-09-29T14:29:21.379Z,1.10
2023-09-29T14:31:48.576Z,1.00
2023-09-29T14:34:16.934Z,0.82
2023-09-29T14:36:44.024Z,1.00
2023-09-29T14:39:13.652Z,1.00
2023-09-29T14:41:40.226Z,1.63
2023-09-29T14:44:07.266Z,1.00
2023-09-29T14:46:34.244Z,1.27
2023-09-29T14:49:01.904Z,1.00
2023-09-29T14:51:28.561Z,1.27
2023-09-29T14:53:55.660Z,1.15
2023-09-29T14:56:22.448Z,1.73
2023-09-29T14:58:49.185Z,0.75
2023-09-29T15:01:15.736Z,0.70
2023-09-29T15:03:42.421Z,0.90
2023-09-29T15:06:14.123Z,0.70
2023-09-29T15:08:41.992Z,1.10
2023-09-29T15:11:08.912Z,0.80
2023-09-29T15:13:35.429Z,0.70
2023-09-29T15:16:02.192Z,0.80
2023-09-29T15:18:29.045Z,0.73
2023-09-29T15:20:55.684Z,0.60
2023-09-29T15:23:22.668Z,0.63
2023-09-29T15:25:52.955Z,0.57
2023-09-29T15:28:20.243Z,0.53
2023-09-29T15:30:48.277Z,0.68
2023-09-29T15:33:15.938Z,0.70
2023-09-29T15:35:56.864Z,0.80
2023-09-29T15:38:24.616Z,1.30
2023-09-29T15:40:52.827Z,1.37
2023-09-29T15:43:20.342Z,1.98
2023-09-29T15:45:47.072Z,1.23
2023-09-29T15:48:13.782Z,1.85
2023-09-29T15:50:40.322Z,1.58
2023-09-29T15:53:06.912Z,1.80
2023-09-29T15:55:34.016Z,2.10
2023-09-29T15:58:02.108Z,2.38
2023-09-29T16:00:28.894Z,2.38
2023-09-29T16:02:56.643Z,2.33
2023-09-29T16:05:23.563Z,2.57
2023-09-29T16:07:50.062Z,2.25
2023-09-29T16:10:19.506Z,1.90
2023-09-29T16:12:46.725Z,2.13
2023-09-29T16:15:13.476Z,1.90
2023-09-29T16:17:40.076Z,1.53
2023-09-29T16:20:07.473Z,1.30
2023-09-29T16:22:34.656Z,1.92
2023-09-29T16:25:01.536Z,1.70
2023-09-29T16:27:28.229Z,1.13
2023-09-29T16:29:54.934Z,1.30
2023-09-29T16:32:31.887Z,1.55
2023-09-29T16:35:01.493Z,1.05
2023-09-29T16:37:28.149Z,1.38
2023-09-29T16:39:55.427Z,1.20
2023-09-29T16:42:21.978Z,1.10
2023-09-29T16:44:48.535Z,1.10
2023-09-29T16:47:15.052Z,0.80
2023-09-29T16:49:42.285Z,0.75
2023-09-29T16:52:08.835Z,1.35
2023-09-29T16:54:35.485Z,0.90
2023-09-29T16:57:02.109Z,1.08
2023-09-29T16:59:28.744Z,1.15
2023-09-29T17:01:55.256Z,1.20
2023-09-29T17:04:21.971Z,0.90
2023-09-29T17:06:48.522Z,0.80
2023-09-29T17:09:17.109Z,0.73
2023-09-29T17:11:46.138Z,1.27
2023-09-29T17:14:13.300Z,1.30
2023-09-29T17:16:40.192Z,0.68
2023-09-29T17:19:08.255Z,0.90
2023-09-29T17:21:35.030Z,0.90
2023-09-29T17:24:02.143Z,1.67
2023-09-29T17:26:29.538Z,1.00
2023-09-29T17:28:56.956Z,1.42
2023-09-29T17:31:25.974Z,1.13
2023-09-29T17:33:53.682Z,1.40
2023-09-29T17:36:20.412Z,1.38
2023-09-29T17:38:47.564Z,1.30
2023-09-29T17:41:16.728Z,1.15
2023-09-29T17:43:43.339Z,1.27
2023-09-29T17:46:10.093Z,1.48
2023-09-29T17:48:43.179Z,1.20
2023-09-29T17:51:15.067Z,1.17
2023-09-29T17:53:42.437Z,1.30
2023-09-29T17:56:11.632Z,1.50
2023-09-29T17:58:38.318Z,1.00
2023-09-29T18:01:05.836Z,1.20
2023-09-29T18:03:32.518Z,1.08
2023-09-29T18:05:59.590Z,1.00
2023-09-29T18:08:26.290Z,0.63
2023-09-29T18:10:53.201Z,1.48
2023-09-29T18:13:20.132Z,0.77
2023-09-29T18:15:46.711Z,0.60
2023-09-29T18:18:13.300Z,0.80
2023-09-29T18:20:39.978Z,0.87
2023-09-29T18:23:06.725Z,0.77
2023-09-29T18:25:33.286Z,1.00
2023-09-29T18:27:59.826Z,1.63
2023-09-29T18:30:28.251Z,1.10
2023-09-29T18:32:55.017Z,0.80
2023-09-29T18:35:21.659Z,0.75
2023-09-29T18:37:48.205Z,0.88
2023-09-29T18:40:16.272Z,0.88
2023-09-29T18:42:44.114Z,1.17
2023-09-29T18:45:11.735Z,0.70
2023-09-29T18:47:38.442Z,1.10
2023-09-29T18:50:05.458Z,0.90
2023-09-29T18:52:32.395Z,1.00
2023-09-29T18:54:58.942Z,1.05
2023-09-29T18:57:25.538Z,1.00
2023-09-29T18:59:52.726Z,0.88
2023-09-29T19:02:19.282Z,1.23
2023-09-29T19:04:46.882Z,0.90
2023-09-29T19:07:14.929Z,1.10
2023-09-29T19:09:41.508Z,0.80
2023-09-29T19:12:08.227Z,0.90
2023-09-29T19:14:34.884Z,0.30
2023-09-29T19:17:01.448Z,0.30
2023-09-29T19:19:28.052Z,0.32
2023-09-29T19:21:54.850Z,0.83
2023-09-29T19:24:21.379Z,1.90
2023-09-29T19:26:47.926Z,2.65
2023-09-29T19:29:15.304Z,3.15
2023-09-29T19:31:41.858Z,2.55
2023-09-29T19:34:09.004Z,2.80
2023-09-29T19:36:35.771Z,2.58
2023-09-29T19:39:02.743Z,1.25
2023-09-29T19:41:29.339Z,0.50
2023-09-29T19:43:56.206Z,0.50
2023-09-29T19:46:23.314Z,0.50
2023-09-29T19:48:52.237Z,0.75
2023-09-29T19:51:19.340Z,0.70
2023-09-29T19:53:45.969Z,0.50
2023-09-29T19:56:13.643Z,0.60
2023-09-29T19:58:41.487Z,0.70
2023-09-29T20:01:10.846Z,0.95
2023-09-29T20:03:41.566Z,0.73
2023-09-29T20:06:09.469Z,0.68
2023-09-29T20:08:36.320Z,0.80
2023-09-29T20:11:03.502Z,0.63
2023-09-29T20:13:31.117Z,0.70
2023-09-29T20:16:00.685Z,0.60
2023-09-29T20:18:27.717Z,0.90
2023-09-29T20:20:54.324Z,1.10
2023-09-29T20:23:22.662Z,1.00
2023-09-29T20:25:49.379Z,0.80
2023-09-29T20:28:16.127Z,0.60
2023-09-29T20:30:42.818Z,0.68
2023-09-29T20:33:09.497Z,0.82
2023-09-29T20:35:36.113Z,0.80
2023-09-29T20:38:02.721Z,0.60
2023-09-29T20:40:29.281Z,1.23
2023-09-29T20:42:56.457Z,1.17
2023-09-29T20:45:23.128Z,1.40
2023-09-29T20:47:49.758Z,1.00
2023-09-29T20:50:17.089Z,1.05
2023-09-29T20:52:43.715Z,0.73
2023-09-29T20:55:10.525Z,0.80
2023-09-29T20:57:37.106Z,0.98
2023-09-29T21:00:03.927Z,0.70
2023-09-29T21:02:30.430Z,0.68
2023-09-29T21:04:57.327Z,1.23
2023-09-29T21:07:23.801Z,0.70
2023-09-29T21:09:50.833Z,0.65
2023-09-29T21:12:17.480Z,1.13
2023-09-29T21:14:44.121Z,0.80
2023-09-29T21:17:10.803Z,0.82
2023-09-29T21:19:37.373Z,0.80
2023-09-29T21:22:04.913Z,1.00
2023-09-29T21:24:31.840Z,1.40
2023-09-29T21:26:58.813Z,0.82
2023-09-29T21:29:25.507Z,0.75
2023-09-29T21:31:54.774Z,1.02
2023-09-29T21:34:21.342Z,0.98
2023-09-29T21:36:48.314Z,0.90
2023-09-29T21:39:15.016Z,0.85
2023-09-29T21:41:43.362Z,0.70
2023-09-29T21:44:14.966Z,0.85
2023-09-29T21:46:42.254Z,1.00
2023-09-29T21:49:09.123Z,0.70
2023-09-29T21:51:37.083Z,1.13
2023-09-29T21:54:04.381Z,0.73
2023-09-29T21:56:31.025Z,0.95
2023-09-29T21:58:58.115Z,0.50
2023-09-29T22:01:24.796Z,0.73
2023-09-29T22:03:52.127Z,0.38
2023-09-29T22:06:19.214Z,0.40
2023-09-29T22:08:46.149Z,0.70
2023-09-29T22:11:13.650Z,0.70
2023-09-29T22:13:41.280Z,0.40
2023-09-29T22:16:08.820Z,0.50
2023-09-29T22:18:36.219Z,1.00
2023-09-29T22:21:03.907Z,0.68
2023-09-29T22:23:32.101Z,1.02
2023-09-29T22:25:59.110Z,0.50
2023-09-29T22:28:25.652Z,0.40
2023-09-29T22:30:53.476Z,0.70
2023-09-29T22:33:20.920Z,0.40
2023-09-29T22:35:47.746Z,0.80
2023-09-29T22:38:14.727Z,0.53
2023-09-29T22:40:41.295Z,0.68
2023-09-29T22:43:08.039Z,0.25
2023-09-29T22:45:34.752Z,0.40
2023-09-29T22:48:01.490Z,0.20
2023-09-29T22:50:28.120Z,0.30
2023-09-29T22:52:54.656Z,0.25
2023-09-29T22:55:21.585Z,0.40
2023-09-29T22:57:48.761Z,0.32
2023-09-29T23:00:15.750Z,0.55
2023-09-29T23:02:45.030Z,0.40
2023-09-29T23:05:12.599Z,0.50
2023-09-29T23:07:39.287Z,0.65
2023-09-29T23:10:09.855Z,0.80
2023-09-29T23:12:37.254Z,0.93
2023-09-29T23:15:04.254Z,0.70
2023-09-29T23:17:31.463Z,0.40
2023-09-29T23:19:59.520Z,0.50
2023-09-29T23:22:26.177Z,0.80
2023-09-29T23:24:52.968Z,0.45
2023-09-29T23:27:19.516Z,0.60
2023-09-29T23:29:46.461Z,0.60
2023-09-29T23:32:13.025Z,0.50
2023-09-29T23:34:39.560Z,0.57
2023-09-29T23:37:06.096Z,0.50
2023-09-29T23:39:32.732Z,0.67
2023-09-29T23:42:00.707Z,0.65
2023-09-29T23:44:30.936Z,0.40
2023-09-29T23:46:58.354Z,0.60
2023-09-29T23:49:26.220Z,0.57
2023-09-29T23:51:55.827Z,0.60
2023-09-29T23:54:22.781Z,0.60
2023-09-29T23:56:49.828Z,0.70
2023-09-29T23:59:16.380Z,0.60
